sensor_id;sensor_type;location;lat;lon;timestamp;temperature;humidity
20376;DHT22;10347;51.828;6.466;2022-08-01T00:00:39;21.80;99.90
20376;DHT22;10347;51.828;6.466;2022-08-01T00:03:05;21.80;99.90
20376;DHT22;10347;51.828;6.466;2022-08-01T00:05:30;21.80;99.90
20376;DHT22;10347;51.828;6.466;2022-08-01T00:07:56;21.70;99.90
20376;DHT22;10347;51.828;6.466;2022-08-01T00:10:22;21.70;99.90
20376;DHT22;10347;51.828;6.466;2022-08-01T00:12:48;21.80;99.90
20376;DHT22;10347;51.828;6.466;2022-08-01T00:15:15;21.80;99.90
20376;DHT22;10347;51.828;6.466;2022-08-01T00:17:43;21.70;99.90
20376;DHT22;10347;51.828;6.466;2022-08-01T00:20:11;21.70;99.90
20376;DHT22;10347;51.828;6.466;2022-08-01T00:22:37;21.70;99.90
20376;DHT22;10347;51.828;6.466;2022-08-01T00:25:04;21.70;99.90
20376;DHT22;10347;51.828;6.466;2022-08-01T00:27:31;21.60;99.90
20376;DHT22;10347;51.828;6.466;2022-08-01T00:29:57;21.60;99.90
20376;DHT22;10347;51.828;6.466;2022-08-01T00:32:23;21.60;99.90
20376;DHT22;10347;51.828;6.466;2022-08-01T00:34:48;21.60;99.90
20376;DHT22;10347;51.828;6.466;2022-08-01T00:37:14;21.60;99.90
20376;DHT22;10347;51.828;6.466;2022-08-01T00:39:39;21.60;99.90
20376;DHT22;10347;51.828;6.466;2022-08-01T00:42:09;21.60;99.90
20376;DHT22;10347;51.828;6.466;2022-08-01T00:44:36;21.60;99.90
20376;DHT22;10347;51.828;6.466;2022-08-01T00:47:02;21.60;99.90
20376;DHT22;10347;51.828;6.466;2022-08-01T00:49:28;21.60;99.90
20376;DHT22;10347;51.828;6.466;2022-08-01T00:51:54;21.70;99.90
20376;DHT22;10347;51.828;6.466;2022-08-01T00:54:20;21.70;99.90
20376;DHT22;10347;51.828;6.466;2022-08-01T00:56:46;21.70;99.90
20376;DHT22;10347;51.828;6.466;2022-08-01T00:59:12;21.60;99.90
20376;DHT22;10347;51.828;6.466;2022-08-01T01:01:38;21.60;99.90
20376;DHT22;10347;51.828;6.466;2022-08-01T01:04:04;21.60;99.90
20376;DHT22;10347;51.828;6.466;2022-08-01T01:15:07;21.60;99.90
20376;DHT22;10347;51.828;6.466;2022-08-01T01:17:56;21.60;99.90
20376;DHT22;10347;51.828;6.466;2022-08-01T01:20:27;21.60;99.90
20376;DHT22;10347;51.828;6.466;2022-08-01T01:25:54;21.60;99.90
20376;DHT22;10347;51.828;6.466;2022-08-01T01:28:40;21.60;99.90
20376;DHT22;10347;51.828;6.466;2022-08-01T01:31:10;21.60;99.90
20376;DHT22;10347;51.828;6.466;2022-08-01T01:33:39;21.60;99.90
20376;DHT22;10347;51.828;6.466;2022-08-01T01:36:09;21.60;99.90
20376;DHT22;10347;51.828;6.466;2022-08-01T01:38:42;21.60;99.90
20376;DHT22;10347;51.828;6.466;2022-08-01T01:41:09;21.60;99.90
20376;DHT22;10347;51.828;6.466;2022-08-01T01:43:36;21.60;99.90
20376;DHT22;10347;51.828;6.466;2022-08-01T01:46:04;21.60;99.90
20376;DHT22;10347;51.828;6.466;2022-08-01T01:48:31;21.60;99.90
20376;DHT22;10347;51.828;6.466;2022-08-01T01:50:58;21.60;99.90
20376;DHT22;10347;51.828;6.466;2022-08-01T01:53:27;21.60;99.90
20376;DHT22;10347;51.828;6.466;2022-08-01T01:55:55;21.60;99.90
20376;DHT22;10347;51.828;6.466;2022-08-01T01:58:22;21.60;99.90
20376;DHT22;10347;51.828;6.466;2022-08-01T02:00:52;21.50;99.90
20376;DHT22;10347;51.828;6.466;2022-08-01T02:03:19;21.50;99.90
20376;DHT22;10347;51.828;6.466;2022-08-01T02:05:46;21.40;99.90
20376;DHT22;10347;51.828;6.466;2022-08-01T02:08:14;21.40;99.90
20376;DHT22;10347;51.828;6.466;2022-08-01T02:10:41;21.40;99.90
20376;DHT22;10347;51.828;6.466;2022-08-01T02:13:28;21.30;99.90
20376;DHT22;10347;51.828;6.466;2022-08-01T02:15:54;21.30;99.90
20376;DHT22;10347;51.828;6.466;2022-08-01T02:18:20;21.30;99.90
20376;DHT22;10347;51.828;6.466;2022-08-01T02:20:45;21.30;99.90
20376;DHT22;10347;51.828;6.466;2022-08-01T02:23:13;21.30;99.90
20376;DHT22;10347;51.828;6.466;2022-08-01T02:25:50;21.30;99.90
20376;DHT22;10347;51.828;6.466;2022-08-01T02:28:20;21.30;99.90
20376;DHT22;10347;51.828;6.466;2022-08-01T02:30:56;21.30;99.90
20376;DHT22;10347;51.828;6.466;2022-08-01T02:33:27;21.30;99.90
20376;DHT22;10347;51.828;6.466;2022-08-01T02:35:58;21.30;99.90
20376;DHT22;10347;51.828;6.466;2022-08-01T02:38:27;21.40;99.90
20376;DHT22;10347;51.828;6.466;2022-08-01T02:40:56;21.40;99.90
20376;DHT22;10347;51.828;6.466;2022-08-01T02:43:25;21.40;99.90
20376;DHT22;10347;51.828;6.466;2022-08-01T02:45:54;21.30;99.90
20376;DHT22;10347;51.828;6.466;2022-08-01T02:48:22;21.30;99.90
20376;DHT22;10347;51.828;6.466;2022-08-01T02:50:54;21.30;99.90
20376;DHT22;10347;51.828;6.466;2022-08-01T02:53:23;21.30;99.90
20376;DHT22;10347;51.828;6.466;2022-08-01T02:55:50;21.30;99.90
20376;DHT22;10347;51.828;6.466;2022-08-01T02:58:17;21.40;99.90
20376;DHT22;10347;51.828;6.466;2022-08-01T03:00:44;21.40;99.90
20376;DHT22;10347;51.828;6.466;2022-08-01T03:03:11;21.40;99.90
20376;DHT22;10347;51.828;6.466;2022-08-01T03:05:38;21.40;99.90
20376;DHT22;10347;51.828;6.466;2022-08-01T03:08:08;21.40;99.90
20376;DHT22;10347;51.828;6.466;2022-08-01T03:10:38;21.40;99.90
20376;DHT22;10347;51.828;6.466;2022-08-01T03:13:05;21.40;99.90
20376;DHT22;10347;51.828;6.466;2022-08-01T03:15:33;21.40;99.90
20376;DHT22;10347;51.828;6.466;2022-08-01T03:18:02;21.40;99.90
20376;DHT22;10347;51.828;6.466;2022-08-01T03:20:31;21.40;99.90
20376;DHT22;10347;51.828;6.466;2022-08-01T03:23:01;21.30;99.90
20376;DHT22;10347;51.828;6.466;2022-08-01T03:25:29;21.30;99.90
20376;DHT22;10347;51.828;6.466;2022-08-01T03:27:59;21.30;99.90
20376;DHT22;10347;51.828;6.466;2022-08-01T03:30:27;21.30;99.90
20376;DHT22;10347;51.828;6.466;2022-08-01T03:32:53;21.30;99.90
20376;DHT22;10347;51.828;6.466;2022-08-01T03:35:22;21.30;99.90
20376;DHT22;10347;51.828;6.466;2022-08-01T03:37:52;21.30;99.90
20376;DHT22;10347;51.828;6.466;2022-08-01T03:40:23;21.30;99.90
20376;DHT22;10347;51.828;6.466;2022-08-01T03:42:56;21.30;99.90
20376;DHT22;10347;51.828;6.466;2022-08-01T03:45:25;21.20;99.90
20376;DHT22;10347;51.828;6.466;2022-08-01T03:47:58;21.20;99.90
20376;DHT22;10347;51.828;6.466;2022-08-01T03:50:25;21.20;99.90
20376;DHT22;10347;51.828;6.466;2022-08-01T03:52:53;21.20;99.90
20376;DHT22;10347;51.828;6.466;2022-08-01T03:55:20;21.20;99.90
20376;DHT22;10347;51.828;6.466;2022-08-01T03:57:47;21.20;99.90
20376;DHT22;10347;51.828;6.466;2022-08-01T04:00:14;21.20;99.90
20376;DHT22;10347;51.828;6.466;2022-08-01T04:02:47;21.20;99.90
20376;DHT22;10347;51.828;6.466;2022-08-01T04:05:14;21.20;99.90
20376;DHT22;10347;51.828;6.466;2022-08-01T04:07:40;21.20;99.90
20376;DHT22;10347;51.828;6.466;2022-08-01T04:10:11;21.20;99.90
20376;DHT22;10347;51.828;6.466;2022-08-01T04:12:36;21.20;99.90
20376;DHT22;10347;51.828;6.466;2022-08-01T04:15:03;21.20;99.90
20376;DHT22;10347;51.828;6.466;2022-08-01T04:17:29;21.20;99.90
20376;DHT22;10347;51.828;6.466;2022-08-01T04:19:55;21.20;99.90
20376;DHT22;10347;51.828;6.466;2022-08-01T04:22:20;21.20;99.90
20376;DHT22;10347;51.828;6.466;2022-08-01T04:24:51;21.30;99.90
20376;DHT22;10347;51.828;6.466;2022-08-01T04:27:23;21.20;99.90
20376;DHT22;10347;51.828;6.466;2022-08-01T04:29:51;21.20;99.90
20376;DHT22;10347;51.828;6.466;2022-08-01T04:32:21;21.20;99.90
20376;DHT22;10347;51.828;6.466;2022-08-01T04:34:47;21.10;99.90
20376;DHT22;10347;51.828;6.466;2022-08-01T04:37:16;21.00;99.90
20376;DHT22;10347;51.828;6.466;2022-08-01T04:39:43;21.00;99.90
20376;DHT22;10347;51.828;6.466;2022-08-01T04:42:10;21.00;99.90
20376;DHT22;10347;51.828;6.466;2022-08-01T04:44:36;21.00;99.90
20376;DHT22;10347;51.828;6.466;2022-08-01T04:47:04;21.00;99.90
20376;DHT22;10347;51.828;6.466;2022-08-01T04:49:34;21.00;99.90
20376;DHT22;10347;51.828;6.466;2022-08-01T04:51:59;21.00;99.90
20376;DHT22;10347;51.828;6.466;2022-08-01T04:54:30;21.00;99.90
20376;DHT22;10347;51.828;6.466;2022-08-01T04:56:57;21.00;99.90
20376;DHT22;10347;51.828;6.466;2022-08-01T04:59:26;21.00;99.90
20376;DHT22;10347;51.828;6.466;2022-08-01T05:02:12;21.00;99.90
20376;DHT22;10347;51.828;6.466;2022-08-01T05:04:39;21.00;99.90
20376;DHT22;10347;51.828;6.466;2022-08-01T05:07:06;21.10;99.90
20376;DHT22;10347;51.828;6.466;2022-08-01T05:09:32;21.10;99.90
20376;DHT22;10347;51.828;6.466;2022-08-01T05:11:58;21.10;99.90
20376;DHT22;10347;51.828;6.466;2022-08-01T05:14:25;21.10;99.90
20376;DHT22;10347;51.828;6.466;2022-08-01T05:16:51;21.10;99.90
20376;DHT22;10347;51.828;6.466;2022-08-01T05:19:17;21.10;99.90
20376;DHT22;10347;51.828;6.466;2022-08-01T05:21:43;21.00;99.90
20376;DHT22;10347;51.828;6.466;2022-08-01T05:24:08;21.00;99.90
20376;DHT22;10347;51.828;6.466;2022-08-01T05:26:34;21.00;99.90
20376;DHT22;10347;51.828;6.466;2022-08-01T05:29:00;21.00;99.90
20376;DHT22;10347;51.828;6.466;2022-08-01T05:31:25;21.00;99.90
20376;DHT22;10347;51.828;6.466;2022-08-01T05:33:51;21.00;99.90
20376;DHT22;10347;51.828;6.466;2022-08-01T05:36:17;21.00;99.90
20376;DHT22;10347;51.828;6.466;2022-08-01T05:38:42;21.00;99.90
20376;DHT22;10347;51.828;6.466;2022-08-01T05:41:09;21.00;99.90
20376;DHT22;10347;51.828;6.466;2022-08-01T05:43:35;21.00;99.90
20376;DHT22;10347;51.828;6.466;2022-08-01T05:46:00;21.00;99.90
20376;DHT22;10347;51.828;6.466;2022-08-01T05:48:26;21.00;99.90
20376;DHT22;10347;51.828;6.466;2022-08-01T05:50:53;21.00;99.90
20376;DHT22;10347;51.828;6.466;2022-08-01T05:53:19;21.00;99.90
20376;DHT22;10347;51.828;6.466;2022-08-01T05:55:45;21.00;99.90
20376;DHT22;10347;51.828;6.466;2022-08-01T05:58:10;21.00;99.90
20376;DHT22;10347;51.828;6.466;2022-08-01T06:00:36;21.00;99.90
20376;DHT22;10347;51.828;6.466;2022-08-01T06:03:02;21.00;99.90
20376;DHT22;10347;51.828;6.466;2022-08-01T06:05:27;21.00;99.90
20376;DHT22;10347;51.828;6.466;2022-08-01T06:07:53;21.10;99.90
20376;DHT22;10347;51.828;6.466;2022-08-01T06:10:19;21.10;99.90
20376;DHT22;10347;51.828;6.466;2022-08-01T06:12:45;21.10;99.90
20376;DHT22;10347;51.828;6.466;2022-08-01T06:15:11;21.10;99.90
20376;DHT22;10347;51.828;6.466;2022-08-01T06:17:37;21.10;99.90
20376;DHT22;10347;51.828;6.466;2022-08-01T06:20:03;21.20;99.90
20376;DHT22;10347;51.828;6.466;2022-08-01T06:22:29;21.10;99.90
20376;DHT22;10347;51.828;6.466;2022-08-01T06:24:55;21.10;99.90
20376;DHT22;10347;51.828;6.466;2022-08-01T06:27:21;21.20;99.90
20376;DHT22;10347;51.828;6.466;2022-08-01T06:29:46;21.20;99.90
20376;DHT22;10347;51.828;6.466;2022-08-01T06:32:12;21.10;99.90
20376;DHT22;10347;51.828;6.466;2022-08-01T06:34:38;21.10;99.90
20376;DHT22;10347;51.828;6.466;2022-08-01T06:37:03;21.20;99.90
20376;DHT22;10347;51.828;6.466;2022-08-01T06:39:29;21.20;99.90
20376;DHT22;10347;51.828;6.466;2022-08-01T06:41:54;21.20;99.90
20376;DHT22;10347;51.828;6.466;2022-08-01T06:44:20;21.20;99.90
20376;DHT22;10347;51.828;6.466;2022-08-01T06:46:45;21.20;99.90
20376;DHT22;10347;51.828;6.466;2022-08-01T06:49:11;21.30;99.90
20376;DHT22;10347;51.828;6.466;2022-08-01T06:51:37;21.30;99.90
20376;DHT22;10347;51.828;6.466;2022-08-01T06:54:02;21.30;99.90
20376;DHT22;10347;51.828;6.466;2022-08-01T06:56:28;21.30;99.90
20376;DHT22;10347;51.828;6.466;2022-08-01T06:58:54;21.30;99.90
20376;DHT22;10347;51.828;6.466;2022-08-01T07:01:26;21.30;99.90
20376;DHT22;10347;51.828;6.466;2022-08-01T07:03:52;21.30;99.90
20376;DHT22;10347;51.828;6.466;2022-08-01T07:06:18;21.40;99.90
20376;DHT22;10347;51.828;6.466;2022-08-01T07:08:43;21.30;99.90
20376;DHT22;10347;51.828;6.466;2022-08-01T07:11:09;21.30;99.90
20376;DHT22;10347;51.828;6.466;2022-08-01T07:13:34;21.40;99.90
20376;DHT22;10347;51.828;6.466;2022-08-01T07:16:00;21.40;99.90
20376;DHT22;10347;51.828;6.466;2022-08-01T07:18:25;21.40;99.90
20376;DHT22;10347;51.828;6.466;2022-08-01T07:20:51;21.40;99.90
20376;DHT22;10347;51.828;6.466;2022-08-01T07:23:17;21.50;99.90
20376;DHT22;10347;51.828;6.466;2022-08-01T07:25:43;21.50;99.90
20376;DHT22;10347;51.828;6.466;2022-08-01T07:28:08;21.50;99.90
20376;DHT22;10347;51.828;6.466;2022-08-01T07:30:34;21.50;99.90
20376;DHT22;10347;51.828;6.466;2022-08-01T07:33:00;21.50;99.90
20376;DHT22;10347;51.828;6.466;2022-08-01T07:35:25;21.50;99.90
20376;DHT22;10347;51.828;6.466;2022-08-01T07:37:51;21.40;99.90
20376;DHT22;10347;51.828;6.466;2022-08-01T07:40:19;21.50;99.90
20376;DHT22;10347;51.828;6.466;2022-08-01T07:42:44;21.40;99.90
20376;DHT22;10347;51.828;6.466;2022-08-01T07:45:11;21.50;99.90
20376;DHT22;10347;51.828;6.466;2022-08-01T07:47:37;21.50;99.90
20376;DHT22;10347;51.828;6.466;2022-08-01T07:50:04;21.50;99.90
20376;DHT22;10347;51.828;6.466;2022-08-01T07:52:31;21.60;99.90
20376;DHT22;10347;51.828;6.466;2022-08-01T07:54:57;21.60;99.90
20376;DHT22;10347;51.828;6.466;2022-08-01T07:57:24;21.60;99.90
20376;DHT22;10347;51.828;6.466;2022-08-01T07:59:50;21.60;99.90
20376;DHT22;10347;51.828;6.466;2022-08-01T08:02:15;21.60;99.90
20376;DHT22;10347;51.828;6.466;2022-08-01T08:04:41;21.60;99.90
20376;DHT22;10347;51.828;6.466;2022-08-01T08:07:07;21.60;99.90
20376;DHT22;10347;51.828;6.466;2022-08-01T08:09:32;21.60;99.90
20376;DHT22;10347;51.828;6.466;2022-08-01T08:11:58;21.60;99.90
20376;DHT22;10347;51.828;6.466;2022-08-01T08:14:24;21.60;99.90
20376;DHT22;10347;51.828;6.466;2022-08-01T08:16:50;21.60;99.90
20376;DHT22;10347;51.828;6.466;2022-08-01T08:19:16;21.50;99.90
20376;DHT22;10347;51.828;6.466;2022-08-01T08:21:42;21.60;99.90
20376;DHT22;10347;51.828;6.466;2022-08-01T08:24:08;21.60;99.90
20376;DHT22;10347;51.828;6.466;2022-08-01T08:26:48;21.60;99.90
20376;DHT22;10347;51.828;6.466;2022-08-01T08:29:15;21.60;99.90
20376;DHT22;10347;51.828;6.466;2022-08-01T08:31:40;21.60;99.90
20376;DHT22;10347;51.828;6.466;2022-08-01T08:34:06;21.60;99.90
20376;DHT22;10347;51.828;6.466;2022-08-01T08:36:35;21.60;99.90
20376;DHT22;10347;51.828;6.466;2022-08-01T08:39:00;21.50;99.90
20376;DHT22;10347;51.828;6.466;2022-08-01T08:41:26;21.50;99.90
20376;DHT22;10347;51.828;6.466;2022-08-01T08:43:52;21.40;99.90
20376;DHT22;10347;51.828;6.466;2022-08-01T08:46:19;21.40;99.90
20376;DHT22;10347;51.828;6.466;2022-08-01T08:48:45;21.40;99.90
20376;DHT22;10347;51.828;6.466;2022-08-01T08:51:12;21.40;99.90
20376;DHT22;10347;51.828;6.466;2022-08-01T08:53:42;21.50;99.90
20376;DHT22;10347;51.828;6.466;2022-08-01T08:56:11;21.50;99.90
20376;DHT22;10347;51.828;6.466;2022-08-01T08:58:38;21.50;99.90
20376;DHT22;10347;51.828;6.466;2022-08-01T09:01:07;21.50;99.90
20376;DHT22;10347;51.828;6.466;2022-08-01T09:03:36;21.60;99.90
20376;DHT22;10347;51.828;6.466;2022-08-01T09:06:02;21.60;99.90
20376;DHT22;10347;51.828;6.466;2022-08-01T09:08:28;21.60;99.90
20376;DHT22;10347;51.828;6.466;2022-08-01T09:10:54;21.60;99.90
20376;DHT22;10347;51.828;6.466;2022-08-01T09:13:19;21.60;99.90
20376;DHT22;10347;51.828;6.466;2022-08-01T09:15:50;21.70;99.90
20376;DHT22;10347;51.828;6.466;2022-08-01T09:18:35;21.80;99.90
20376;DHT22;10347;51.828;6.466;2022-08-01T09:21:19;21.80;99.90
20376;DHT22;10347;51.828;6.466;2022-08-01T09:23:48;21.90;99.90
20376;DHT22;10347;51.828;6.466;2022-08-01T09:26:21;21.90;99.90
20376;DHT22;10347;51.828;6.466;2022-08-01T09:28:53;21.90;99.90
20376;DHT22;10347;51.828;6.466;2022-08-01T09:31:19;22.00;99.90
20376;DHT22;10347;51.828;6.466;2022-08-01T09:34:00;22.10;99.90
20376;DHT22;10347;51.828;6.466;2022-08-01T09:36:52;22.00;99.90
20376;DHT22;10347;51.828;6.466;2022-08-01T09:39:20;22.10;99.90
20376;DHT22;10347;51.828;6.466;2022-08-01T09:41:47;22.00;99.90
20376;DHT22;10347;51.828;6.466;2022-08-01T09:44:14;22.10;99.90
20376;DHT22;10347;51.828;6.466;2022-08-01T09:46:52;22.10;99.90
20376;DHT22;10347;51.828;6.466;2022-08-01T09:49:30;22.20;99.90
20376;DHT22;10347;51.828;6.466;2022-08-01T09:51:57;22.20;99.90
20376;DHT22;10347;51.828;6.466;2022-08-01T09:54:31;22.20;99.90
20376;DHT22;10347;51.828;6.466;2022-08-01T09:57:08;22.20;99.90
20376;DHT22;10347;51.828;6.466;2022-08-01T09:59:38;22.20;99.90
20376;DHT22;10347;51.828;6.466;2022-08-01T10:02:14;22.20;99.90
20376;DHT22;10347;51.828;6.466;2022-08-01T10:04:50;22.20;99.90
20376;DHT22;10347;51.828;6.466;2022-08-01T10:07:19;22.30;99.90
20376;DHT22;10347;51.828;6.466;2022-08-01T10:09:46;22.30;99.90
20376;DHT22;10347;51.828;6.466;2022-08-01T10:12:14;22.30;99.90
20376;DHT22;10347;51.828;6.466;2022-08-01T10:14:41;22.30;99.90
20376;DHT22;10347;51.828;6.466;2022-08-01T10:17:08;22.30;99.90
20376;DHT22;10347;51.828;6.466;2022-08-01T10:19:36;22.30;99.90
20376;DHT22;10347;51.828;6.466;2022-08-01T10:22:06;22.30;99.90
20376;DHT22;10347;51.828;6.466;2022-08-01T10:24:36;22.30;99.90
20376;DHT22;10347;51.828;6.466;2022-08-01T10:27:05;22.20;99.90
20376;DHT22;10347;51.828;6.466;2022-08-01T10:29:36;22.20;99.90
20376;DHT22;10347;51.828;6.466;2022-08-01T10:32:05;22.10;99.90
20376;DHT22;10347;51.828;6.466;2022-08-01T10:34:32;22.20;99.90
20376;DHT22;10347;51.828;6.466;2022-08-01T10:36:58;22.20;99.90
20376;DHT22;10347;51.828;6.466;2022-08-01T10:39:25;22.10;99.90
20376;DHT22;10347;51.828;6.466;2022-08-01T10:41:54;22.10;99.90
20376;DHT22;10347;51.828;6.466;2022-08-01T10:44:20;22.10;99.90
20376;DHT22;10347;51.828;6.466;2022-08-01T10:46:50;22.10;99.90
20376;DHT22;10347;51.828;6.466;2022-08-01T10:49:20;22.10;99.90
20376;DHT22;10347;51.828;6.466;2022-08-01T10:51:47;22.10;99.90
20376;DHT22;10347;51.828;6.466;2022-08-01T10:54:12;22.10;99.90
20376;DHT22;10347;51.828;6.466;2022-08-01T10:56:40;22.20;99.90
20376;DHT22;10347;51.828;6.466;2022-08-01T10:59:07;22.20;99.90
20376;DHT22;10347;51.828;6.466;2022-08-01T11:01:33;22.20;99.90
20376;DHT22;10347;51.828;6.466;2022-08-01T11:04:09;22.20;99.90
20376;DHT22;10347;51.828;6.466;2022-08-01T11:06:54;22.20;99.90
20376;DHT22;10347;51.828;6.466;2022-08-01T11:09:26;22.20;99.90
20376;DHT22;10347;51.828;6.466;2022-08-01T11:14:31;22.10;99.90
20376;DHT22;10347;51.828;6.466;2022-08-01T11:20:15;22.10;99.90
20376;DHT22;10347;51.828;6.466;2022-08-01T11:30:51;22.20;99.90
20376;DHT22;10347;51.828;6.466;2022-08-01T11:33:19;22.20;99.90
20376;DHT22;10347;51.828;6.466;2022-08-01T11:41:24;22.20;99.90
20376;DHT22;10347;51.828;6.466;2022-08-01T11:54:46;22.30;99.90
20376;DHT22;10347;51.828;6.466;2022-08-01T11:57:14;22.30;99.90
20376;DHT22;10347;51.828;6.466;2022-08-01T11:59:45;22.20;99.90
20376;DHT22;10347;51.828;6.466;2022-08-01T12:02:32;22.30;99.90
20376;DHT22;10347;51.828;6.466;2022-08-01T12:05:10;22.20;99.90
20376;DHT22;10347;51.828;6.466;2022-08-01T12:07:38;22.20;99.90
20376;DHT22;10347;51.828;6.466;2022-08-01T12:10:05;22.20;99.90
20376;DHT22;10347;51.828;6.466;2022-08-01T12:12:32;22.20;99.90
20376;DHT22;10347;51.828;6.466;2022-08-01T12:15:06;22.20;99.90
20376;DHT22;10347;51.828;6.466;2022-08-01T12:17:40;22.20;99.90
20376;DHT22;10347;51.828;6.466;2022-08-01T12:20:09;22.20;99.90
20376;DHT22;10347;51.828;6.466;2022-08-01T12:22:35;22.30;99.90
20376;DHT22;10347;51.828;6.466;2022-08-01T12:25:06;22.30;99.90
20376;DHT22;10347;51.828;6.466;2022-08-01T12:27:32;22.30;99.90
20376;DHT22;10347;51.828;6.466;2022-08-01T12:29:59;22.30;99.90
20376;DHT22;10347;51.828;6.466;2022-08-01T12:32:33;22.30;99.90
20376;DHT22;10347;51.828;6.466;2022-08-01T12:35:07;22.30;99.90
20376;DHT22;10347;51.828;6.466;2022-08-01T12:37:41;22.40;99.90
20376;DHT22;10347;51.828;6.466;2022-08-01T12:40:13;22.40;99.90
20376;DHT22;10347;51.828;6.466;2022-08-01T12:42:44;22.50;99.90
20376;DHT22;10347;51.828;6.466;2022-08-01T12:45:13;22.60;99.90
20376;DHT22;10347;51.828;6.466;2022-08-01T12:47:39;22.60;99.90
20376;DHT22;10347;51.828;6.466;2022-08-01T12:50:16;22.60;99.90
20376;DHT22;10347;51.828;6.466;2022-08-01T12:52:42;22.60;99.90
20376;DHT22;10347;51.828;6.466;2022-08-01T12:55:12;22.70;99.90
20376;DHT22;10347;51.828;6.466;2022-08-01T12:57:41;22.70;99.90
20376;DHT22;10347;51.828;6.466;2022-08-01T13:00:12;22.70;99.90
20376;DHT22;10347;51.828;6.466;2022-08-01T13:02:38;22.70;99.90
20376;DHT22;10347;51.828;6.466;2022-08-01T13:05:05;22.80;99.90
20376;DHT22;10347;51.828;6.466;2022-08-01T13:07:46;22.80;99.90
20376;DHT22;10347;51.828;6.466;2022-08-01T13:10:14;22.90;99.90
20376;DHT22;10347;51.828;6.466;2022-08-01T13:12:41;22.90;99.90
20376;DHT22;10347;51.828;6.466;2022-08-01T13:15:24;23.00;99.90
20376;DHT22;10347;51.828;6.466;2022-08-01T13:17:54;23.10;99.90
20376;DHT22;10347;51.828;6.466;2022-08-01T13:20:32;23.10;99.90
20376;DHT22;10347;51.828;6.466;2022-08-01T13:23:11;23.10;99.90
20376;DHT22;10347;51.828;6.466;2022-08-01T13:25:47;23.20;99.90
20376;DHT22;10347;51.828;6.466;2022-08-01T13:28:21;23.20;99.90
20376;DHT22;10347;51.828;6.466;2022-08-01T13:31:07;23.30;99.90
20376;DHT22;10347;51.828;6.466;2022-08-01T13:33:48;23.30;99.90
20376;DHT22;10347;51.828;6.466;2022-08-01T13:36:14;23.40;99.90
20376;DHT22;10347;51.828;6.466;2022-08-01T13:38:41;23.40;99.90
20376;DHT22;10347;51.828;6.466;2022-08-01T13:41:26;23.50;99.90
20376;DHT22;10347;51.828;6.466;2022-08-01T13:43:52;23.50;99.90
20376;DHT22;10347;51.828;6.466;2022-08-01T13:46:18;23.60;99.90
20376;DHT22;10347;51.828;6.466;2022-08-01T13:48:44;23.70;99.90
20376;DHT22;10347;51.828;6.466;2022-08-01T13:51:09;23.80;99.90
20376;DHT22;10347;51.828;6.466;2022-08-01T13:53:35;23.80;99.90
20376;DHT22;10347;51.828;6.466;2022-08-01T13:56:01;23.80;99.90
20376;DHT22;10347;51.828;6.466;2022-08-01T13:58:27;23.90;99.90
20376;DHT22;10347;51.828;6.466;2022-08-01T14:00:54;23.90;99.90
20376;DHT22;10347;51.828;6.466;2022-08-01T14:03:19;23.90;99.90
20376;DHT22;10347;51.828;6.466;2022-08-01T14:05:45;23.90;99.90
20376;DHT22;10347;51.828;6.466;2022-08-01T14:08:11;23.90;99.90
20376;DHT22;10347;51.828;6.466;2022-08-01T14:10:37;24.00;99.90
20376;DHT22;10347;51.828;6.466;2022-08-01T14:13:03;24.00;99.90
20376;DHT22;10347;51.828;6.466;2022-08-01T14:15:29;24.00;99.90
20376;DHT22;10347;51.828;6.466;2022-08-01T14:17:55;24.00;99.90
20376;DHT22;10347;51.828;6.466;2022-08-01T14:20:21;24.00;99.90
20376;DHT22;10347;51.828;6.466;2022-08-01T14:22:47;24.00;99.90
20376;DHT22;10347;51.828;6.466;2022-08-01T14:25:13;24.00;99.90
20376;DHT22;10347;51.828;6.466;2022-08-01T14:27:38;24.00;99.90
20376;DHT22;10347;51.828;6.466;2022-08-01T14:30:07;24.10;99.90
20376;DHT22;10347;51.828;6.466;2022-08-01T14:32:33;24.10;99.90
20376;DHT22;10347;51.828;6.466;2022-08-01T14:35:02;24.20;99.90
20376;DHT22;10347;51.828;6.466;2022-08-01T14:37:28;24.20;99.90
20376;DHT22;10347;51.828;6.466;2022-08-01T14:39:55;24.20;99.90
20376;DHT22;10347;51.828;6.466;2022-08-01T14:42:20;24.10;99.90
20376;DHT22;10347;51.828;6.466;2022-08-01T14:44:46;24.10;99.90
20376;DHT22;10347;51.828;6.466;2022-08-01T14:47:11;24.10;99.90
20376;DHT22;10347;51.828;6.466;2022-08-01T14:49:37;24.10;99.90
20376;DHT22;10347;51.828;6.466;2022-08-01T14:52:03;24.10;99.90
20376;DHT22;10347;51.828;6.466;2022-08-01T14:54:28;24.10;99.90
20376;DHT22;10347;51.828;6.466;2022-08-01T14:56:54;24.10;99.90
20376;DHT22;10347;51.828;6.466;2022-08-01T14:59:19;24.20;99.90
20376;DHT22;10347;51.828;6.466;2022-08-01T15:01:45;24.20;99.90
20376;DHT22;10347;51.828;6.466;2022-08-01T15:04:11;24.30;99.90
20376;DHT22;10347;51.828;6.466;2022-08-01T15:06:36;24.30;99.90
20376;DHT22;10347;51.828;6.466;2022-08-01T15:09:02;24.30;99.90
20376;DHT22;10347;51.828;6.466;2022-08-01T15:11:28;24.40;99.90
20376;DHT22;10347;51.828;6.466;2022-08-01T15:13:54;24.40;99.90
20376;DHT22;10347;51.828;6.466;2022-08-01T15:16:38;24.40;99.90
20376;DHT22;10347;51.828;6.466;2022-08-01T15:19:03;24.40;99.90
20376;DHT22;10347;51.828;6.466;2022-08-01T15:21:29;24.40;99.90
20376;DHT22;10347;51.828;6.466;2022-08-01T15:23:55;24.40;99.90
20376;DHT22;10347;51.828;6.466;2022-08-01T15:26:20;24.40;99.90
20376;DHT22;10347;51.828;6.466;2022-08-01T15:28:46;24.30;99.90
20376;DHT22;10347;51.828;6.466;2022-08-01T15:31:12;24.30;99.90
20376;DHT22;10347;51.828;6.466;2022-08-01T15:33:38;24.30;99.90
20376;DHT22;10347;51.828;6.466;2022-08-01T15:36:04;24.40;99.90
20376;DHT22;10347;51.828;6.466;2022-08-01T15:38:30;24.40;99.90
20376;DHT22;10347;51.828;6.466;2022-08-01T15:40:55;24.40;99.90
20376;DHT22;10347;51.828;6.466;2022-08-01T15:43:21;24.40;99.90
20376;DHT22;10347;51.828;6.466;2022-08-01T15:45:46;24.40;99.90
20376;DHT22;10347;51.828;6.466;2022-08-01T15:48:12;24.40;99.90
20376;DHT22;10347;51.828;6.466;2022-08-01T15:50:38;24.40;99.90
20376;DHT22;10347;51.828;6.466;2022-08-01T15:53:04;24.50;99.90
20376;DHT22;10347;51.828;6.466;2022-08-01T15:55:30;24.50;99.90
20376;DHT22;10347;51.828;6.466;2022-08-01T15:57:56;24.60;99.90
20376;DHT22;10347;51.828;6.466;2022-08-01T16:00:21;24.60;99.90
20376;DHT22;10347;51.828;6.466;2022-08-01T16:02:47;24.60;99.90
20376;DHT22;10347;51.828;6.466;2022-08-01T16:05:12;24.60;99.90
20376;DHT22;10347;51.828;6.466;2022-08-01T16:07:38;24.60;99.90
20376;DHT22;10347;51.828;6.466;2022-08-01T16:10:04;24.60;99.90
20376;DHT22;10347;51.828;6.466;2022-08-01T16:12:30;24.60;99.90
20376;DHT22;10347;51.828;6.466;2022-08-01T16:14:56;24.60;99.90
20376;DHT22;10347;51.828;6.466;2022-08-01T16:17:22;24.60;99.90